Detall de PIREP

Printer-friendly versionPDF version

[2014/10/28 08:09:00]
Flight IATA:CT3417
Pilot Number:042
Company ICAO:CAT
Aircraft Type:A320/E
PAX:96
Departing Airport: LATI
Destination Airport: LEBL
Alternate Airport:LERS
Online: VATSIM
Route:DIRES P92 PAPIZ UP92 BRD UM603 POKAV UZ347 MINKA UQ182 MALAV UM601 BALEN/N0404F290 UM601 VERSO
Flight Level:F340
No Slew and time accel
No pause
Crash detect
Detect pilot in Cockpit between each 30 and 45 minutes
08:09 Zero fuel Weight: 124281 Lbs, Fuel Weight: 42195 Lbs
08:09 VATSIM:LATI 280750Z 34003KT CAVOK 12/06 Q1021 NOSIG
08:09 VATSIM:LEBL 280800Z 32007KT 210V360 9999 FEW022 16/14 Q1019 NOSIG
08:16 Parking Brakes off
08:26 Take-off
08:26 Take off Weight: 165192 Lbs
08:26 Wind: 340º @ 003 Knots Heading: 354º
08:26 POS N41º 25´ 29´´ E019º 43´ 08´´
08:26 Gear Up: 142 Knots
08:26 Flaps:3 at 142 Knots
08:26 Flaps:2 at 161 Knots
08:27 Flaps:0 at 187 Knots
08:41 Wind:214º@013 Knots Heading: 253º Ground Speed: 438 Knots Altitude 32700 ft
08:42 TOC
08:42 Fuel Weight: 37405 Lb
08:56 Wind:231º@005 Knots Heading: 269º Ground Speed: 443 Knots Altitude 34186 ft
09:11 Wind:012º@015 Knots Heading: 289º Ground Speed: 445 Knots Altitude 34196 ft
09:26 Wind:026º@016 Knots Heading: 271º Ground Speed: 452 Knots Altitude 34169 ft
09:41 Wind:044º@014 Knots Heading: 274º Ground Speed: 453 Knots Altitude 34176 ft
09:56 Wind:051º@012 Knots Heading: 273º Ground Speed: 452 Knots Altitude 34169 ft
10:07 TOD
10:07 Fuel Weight: 29961 Lb
10:11 Wind:024º@019 Knots Heading: 279º Ground Speed: 412 Knots Altitude 27227 ft
10:25 Flaps:1 at 207 Knots
10:26 Wind:328º@000 Knots Heading: 290º Ground Speed: 219 Knots Altitude 7247 ft
10:31 Flaps:3 at 171 Knots
10:31 Gear Down: 171 Knots
10:31 Flaps:4 at 157 Knots
10:31 Flaps:5 at 157 Knots
10:34 TouchDown:Rate -396 ft/min Speed: 140 Knots
10:35 VATSIM:LEBL 281030Z 08007KT 040V110 9999 FEW018 SCT030 21/14 Q1019 NOSIG
10:35 Land
10:35 Wind:077º@007 Knots
10:35 Heading: 065º
10:35 Flight Duration: 02:09
10:35 Landing Weight: 153041 Lbs
10:35 POS N41º 17´ 57´´ E002º 05´ 06´´
10:39 Parking brakes on
10:39 Block to Block Duration: 02:23
10:39 Final Fuel: 28181 Lbls
10:39 Spent Fuel: 14014 Lbls
10:39 Flight Length: 872 NM
10:39 TOD Land Length: 134 NM

Exportar CSV

Powered by Drupal - Modified by Danger4k